createdAt,value
2022-11-27T18:54:37.789Z,4.18
2022-11-27T18:57:07.130Z,4.22
2022-11-27T18:59:34.814Z,4.18
2022-11-27T19:02:04.147Z,4.17
2022-11-27T19:04:31.058Z,4.20
2022-11-27T19:06:58.144Z,4.30
2022-11-27T19:09:25.184Z,4.44
2022-11-27T19:11:53.392Z,4.54
2022-11-27T19:14:20.420Z,4.58
2022-11-27T19:16:47.553Z,4.65
2022-11-27T19:22:07.057Z,4.83
2022-11-27T19:24:33.995Z,4.93
2022-11-27T19:27:00.894Z,4.98
2022-11-27T19:29:28.823Z,4.99
2022-11-27T19:31:58.048Z,5.01
2022-11-27T19:34:25.956Z,5.03
2022-11-27T19:36:53.176Z,5.03
2022-11-27T19:39:20.109Z,5.05
2022-11-27T19:41:48.899Z,5.10
2022-11-27T19:44:17.602Z,5.14
2022-11-27T19:49:28.164Z,5.09
2022-11-27T19:51:54.927Z,5.02
2022-11-27T19:54:23.787Z,5.00
2022-11-27T19:56:51.739Z,5.02
2022-11-27T19:59:24.279Z,4.98
2022-11-27T20:01:56.294Z,5.02
2022-11-27T20:04:26.338Z,5.02
2022-11-27T20:06:53.548Z,5.05
2022-11-27T20:09:20.477Z,5.13
2022-11-27T20:11:48.185Z,5.20
2022-11-27T20:14:17.780Z,5.27
2022-11-27T20:16:44.835Z,5.30
2022-11-27T20:19:12.220Z,5.33
2022-11-27T20:21:40.213Z,5.36
2022-11-27T20:24:07.131Z,5.38
2022-11-27T20:26:39.654Z,5.40
2022-11-27T20:29:10.036Z,5.31
2022-11-27T20:31:41.251Z,5.28
2022-11-27T20:34:14.981Z,5.29
2022-11-27T20:36:42.105Z,5.25
2022-11-27T20:39:13.927Z,5.14
2022-11-27T20:41:41.923Z,5.06
2022-11-27T20:44:09.454Z,5.09
2022-11-27T20:46:36.446Z,5.12
2022-11-27T20:49:04.661Z,5.15
2022-11-27T20:51:34.977Z,5.11
2022-11-27T20:54:08.400Z,5.10
2022-11-27T20:56:35.815Z,5.03
2022-11-27T20:59:05.149Z,4.94
2022-11-27T21:01:34.375Z,4.94
2022-11-27T21:04:04.567Z,4.89
2022-11-27T21:06:32.859Z,4.95
2022-11-27T21:09:02.393Z,5.05
2022-11-27T21:11:31.942Z,5.07
2022-11-27T21:14:02.168Z,5.00
2022-11-27T21:16:31.401Z,4.90
2022-11-27T21:19:02.722Z,4.83
2022-11-27T21:21:30.058Z,4.80
2022-11-27T21:23:58.846Z,4.85
2022-11-27T21:26:26.364Z,4.87
2022-11-27T21:28:53.262Z,4.95
2022-11-27T21:31:23.355Z,5.01
2022-11-27T21:33:59.625Z,5.04
2022-11-27T21:36:29.195Z,4.97
2022-11-27T21:38:58.129Z,4.90
2022-11-27T21:41:26.725Z,4.96
2022-11-27T21:43:56.825Z,5.05
2022-11-27T21:46:25.445Z,5.09
2022-11-27T21:48:55.228Z,5.08
2022-11-27T21:51:23.332Z,5.08
2022-11-27T21:53:52.842Z,5.14
2022-11-27T21:56:21.186Z,5.15
2022-11-27T21:58:48.955Z,5.19
2022-11-27T22:01:19.673Z,5.22
2022-11-27T22:03:51.557Z,5.27
2022-11-27T22:06:19.662Z,5.35
2022-11-27T22:08:49.524Z,5.41
2022-11-27T22:11:22.724Z,5.44
2022-11-27T22:13:49.989Z,5.48
2022-11-27T22:16:22.901Z,5.48
2022-11-27T22:18:50.517Z,5.45
2022-11-27T22:21:17.953Z,5.43
2022-11-27T22:23:45.576Z,5.43
2022-11-27T22:26:15.535Z,5.44
2022-11-27T22:28:42.695Z,5.45
2022-11-27T22:31:15.229Z,5.49
2022-11-27T22:33:43.096Z,5.52
2022-11-27T22:36:26.933Z,5.53
2022-11-27T22:38:55.407Z,5.54
2022-11-27T22:41:25.498Z,5.53
2022-11-27T22:43:53.039Z,5.51
2022-11-27T22:46:35.541Z,5.49
2022-11-27T22:49:06.202Z,5.47
2022-11-27T22:51:39.187Z,5.49
2022-11-27T22:54:07.871Z,5.54
2022-11-27T22:56:34.815Z,5.57
2022-11-27T22:59:30.651Z,5.56
2022-11-27T23:01:49.200Z,5.45
2022-11-27T23:04:16.713Z,5.31
2022-11-27T23:06:48.204Z,5.27
2022-11-27T23:09:18.341Z,5.24
2022-11-27T23:11:45.277Z,5.24
2022-11-27T23:14:12.120Z,5.20
2022-11-27T23:16:38.995Z,5.19
2022-11-27T23:19:05.891Z,5.13
2022-11-27T23:21:35.367Z,5.11
2022-11-27T23:24:02.063Z,5.12
2022-11-27T23:26:28.946Z,5.16
2022-11-27T23:28:56.409Z,5.19
2022-11-27T23:31:31.153Z,5.18
2022-11-27T23:34:02.080Z,5.17
2022-11-27T23:36:30.906Z,5.15
2022-11-27T23:39:00.080Z,5.15
2022-11-27T23:41:27.150Z,5.13
2022-11-27T23:43:55.251Z,5.14
2022-11-27T23:46:26.387Z,5.14
2022-11-27T23:48:58.088Z,5.14
2022-11-27T23:51:27.607Z,5.17
2022-11-27T23:53:54.955Z,5.18
2022-11-27T23:56:26.196Z,5.18
2022-11-27T23:58:54.941Z,5.19
